Terminal Aerodrome Forecast
Issued by NWS Corpus Christi, TX

Home | Current Version | Previous Version | Text Only | Print | Product List | Glossary On
Versions: 1 2 3 4 5 6 7 8 9 10 11 12 13
000
FTUS44 KCRP 260520
TAFCRP
TAF
KCRP 260520Z 2606/2706 12011KT P6SM VCSH SCT015 BKN250
     FM260800 13009KT P6SM BKN015 BKN150
      TEMPO 2609/2613 4SM TSRA BR OVC010CB
     FM261300 14012KT P6SM BKN025 OVC120
      TEMPO 2613/2617 5SM SHRA BR OVC020
     FM261800 12013G20KT P6SM SCT030 BKN100
      TEMPO 2618/2622 4SM TSRA BR BKN025CB
     FM262300 11016G23KT P6SM SCT035 BKN100
     FM270300 11013KT P6SM SCT020 BKN100=

USA.gov is the U.S. government's official web portal to all federal, state and local government web resources and services.